Nordic Moon — V7DU7 — position and weather

sailwx.info

Track history (hours):
 
Tides and Currents Weather Stations Pressure Air Temp Water Temp Dewpoint Dewpoint Depression Visibility Wind Speed Wind Dir Waves Ship Positions

Nordic Moon

Last reported at 2018-Jan-27 12:38 UTC. Time now 2018-Feb-18 05:30 UTC.
Position N 07°40' W 016°06'.
Warning: this ship's position is 21 days out of date.

Length 272 m; draft 9 m.

Type: Tanker. MMSI: 538001711.

Date/timePositionNaut miles runAvg speedWind from/ knotsBaromVisibWave heightAir tempDewpointWater temp
2018-Jan-27 12:38N 07°40' W 016°06'1 8.4
2018-Jan-27 12:30N 07°41' W 016°06'25 8.3
2018-Jan-27 09:30N 07°59' W 016°24'612.8
2018-Jan-27 09:00N 08°03' W 016°29'713.7
2018-Jan-27 08:30N 08°08' W 016°34'910.7
2018-Jan-27 07:38N 08°14' W 016°41'210.5
2018-Jan-27 07:26N 08°16' W 016°42'510.6
2018-Jan-27 07:00N 08°19' W 016°45'510.6
2018-Jan-27 06:31N 08°23' W 016°49'510.6
2018-Jan-27 06:00N 08°26' W 016°53'510.5
2018-Jan-27 05:30N 08°30' W 016°57'810.3
2018-Jan-27 04:42N 08°37' W 017°02'210.4
2018-Jan-27 04:30N 08°38' W 017°03'510.6
2018-Jan-27 04:01N 08°43' W 017°06'510.6
2018-Jan-27 03:30N 08°47' W 017°09'510.6
2018-Jan-27 02:59N 08°51' W 017°12'510.5
2018-Jan-27 02:31N 08°56' W 017°15'610.5
2018-Jan-27 01:55N 09°01' W 017°19'3210.5
2018-Jan-26 22:53N 09°27' W 017°38'710.6
2018-Jan-26 22:16N 09°32' W 017°41'510.3
2018-Jan-26 21:47N 09°36' W 017°44'310.1
2018-Jan-26 21:30N 09°38' W 017°46'510.0
2018-Jan-26 21:00N 09°43' W 017°49'510.0
2018-Jan-26 20:30N 09°47' W 017°52'510.1
2018-Jan-26 20:00N 09°51' W 017°55'910.2
2018-Jan-26 19:07N 09°58' W 018°00'110.1
2018-Jan-26 18:59N 09°59' W 018°01'610.1
2018-Jan-26 18:20N 10°05' W 018°05'4 9.9
2018-Jan-26 17:58N 10°08' W 018°07'5 9.8
2018-Jan-26 17:30N 10°11' W 018°09'7 9.8
2018-Jan-26 16:49N 10°17' W 018°13'6 9.8
2018-Jan-26 16:12N 10°22' W 018°17'2 8.0
2018-Jan-26 16:00N 10°23' W 018°18'4 7.6
2018-Jan-26 15:31N 10°26' W 018°20'  
2018-Jan-23 21:20N 21°17' W 018°28'5610.6
2018-Jan-23 16:02N 22°11' W 018°13'238 9.9
2018-Jan-22 16:08N 25°43' W 016°15'510.3
2018-Jan-22 15:42N 25°47' W 016°12'310.3
2018-Jan-22 15:27N 25°49' W 016°11'410.2
2018-Jan-22 15:00N 25°53' W 016°08'10110.4
2018-Jan-22 05:20N 27°22' W 015°16'410.9
2018-Jan-22 04:57N 27°27' W 015°16'510.8
2018-Jan-22 04:30N 27°31' W 015°16'510.4
2018-Jan-22 04:00N 27°37' W 015°16'510.2
2018-Jan-22 03:30N 27°42' W 015°16'5 9.9
2018-Jan-22 03:00N 27°47' W 015°16'5 9.8
2018-Jan-22 02:30N 27°52' W 015°16'5 9.9
2018-Jan-22 02:00N 27°57' W 015°16'5 9.8
2018-Jan-22 01:29N 28°02' W 015°17'5 9.7
2018-Jan-22 01:00N 28°05' W 015°20'4 8.9
2018-Jan-22 00:30N 28°09' W 015°23'0 0.6
2018-Jan-22 00:00N 28°08' W 015°24'0 0.1
2018-Jan-21 23:30N 28°08' W 015°24'0 0.0
2018-Jan-21 23:00N 28°08' W 015°24'0 0.0
2018-Jan-21 22:30N 28°08' W 015°24'0 0.0
2018-Jan-21 22:00N 28°08' W 015°24'0 0.0
2018-Jan-21 21:30N 28°08' W 015°24'0 0.1
2018-Jan-21 21:00N 28°08' W 015°24'0 0.1
2018-Jan-21 20:30N 28°08' W 015°24'0 0.0
2018-Jan-21 20:00N 28°08' W 015°24'0 0.1
2018-Jan-21 19:30N 28°08' W 015°24'0 0.0
2018-Jan-21 19:00N 28°08' W 015°24'0 0.0
2018-Jan-21 18:21N 28°08' W 015°24'0 0.1
2018-Jan-21 17:51N 28°08' W 015°24'0 0.0
2018-Jan-21 17:21N 28°08' W 015°24'0 0.0
2018-Jan-21 16:51N 28°08' W 015°24'0 0.1
2018-Jan-21 16:24N 28°08' W 015°24'0 0.0
2018-Jan-21 15:54N 28°09' W 015°24'0 0.0
2018-Jan-21 15:24N 28°08' W 015°24'0 0.0
2018-Jan-21 14:54N 28°09' W 015°24'0 0.0
2018-Jan-21 14:24N 28°09' W 015°24'0 0.0
2018-Jan-21 13:54N 28°09' W 015°24'0 0.0
2018-Jan-21 13:27N 28°09' W 015°24'0 0.0
2018-Jan-21 12:57N 28°09' W 015°24'0 0.0
2018-Jan-21 12:27N 28°09' W 015°24'0 0.0
2018-Jan-21 11:39N 28°09' W 015°24'0 0.0
2018-Jan-21 11:27N 28°09' W 015°24'0 0.0
2018-Jan-21 11:00N 28°08' W 015°24'0 0.0
2018-Jan-21 10:27N 28°08' W 015°24'0 0.3
2018-Jan-21 10:00N 28°08' W 015°24'1 1.8
2018-Jan-21 09:30N 28°08' W 015°23'2 3.4
2018-Jan-21 09:00N 28°07' W 015°22'3 5.5
2018-Jan-21 08:30N 28°07' W 015°18'4 7.9
2018-Jan-21 07:59N 28°11' W 015°16'4 8.1
2018-Jan-21 07:30N 28°15' W 015°14'4 8.0
2018-Jan-21 07:00N 28°18' W 015°13'4 7.8
2018-Jan-21 06:30N 28°22' W 015°11'4 7.5
2018-Jan-21 06:00N 28°25' W 015°10'4 7.4
2018-Jan-21 05:30N 28°29' W 015°09'4 7.7
2018-Jan-21 05:00N 28°33' W 015°09'4 7.8
2018-Jan-21 04:30N 28°37' W 015°08'4 7.8
2018-Jan-21 04:00N 28°41' W 015°08'4 7.9
2018-Jan-21 03:29N 28°45' W 015°07'6 8.2
2018-Jan-21 02:45N 28°50' W 015°05'2 8.2
2018-Jan-21 02:30N 28°52' W 015°04'4 8.1
2018-Jan-21 02:00N 28°56' W 015°03'4 8.2
2018-Jan-21 01:30N 29°00' W 015°02'6 7.9
2018-Jan-21 00:43N 29°06' W 015°00'2 7.9
2018-Jan-21 00:26N 29°09' W 014°60'4 8.0
2018-Jan-20 23:56N 29°12' W 014°58'4 7.9
2018-Jan-20 23:28N 29°16' W 014°57'10 4.1
2018-Jan-20 20:55N 29°26' W 014°55'1 1.8
2018-Jan-20 20:30N 29°27' W 014°55'1 1.7
2018-Jan-20 19:47N 29°28' W 014°55'36 1.9
2018-Jan-20 01:05N 30°03' W 014°49'0 2.2
2018-Jan-20 00:59N 30°04' W 014°49'1 2.1
2018-Jan-20 00:30N 30°05' W 014°49'1 2.0
2018-Jan-19 23:49N 30°06' W 014°49'  
Track history (hours):
 
Tides and Currents Weather Stations Pressure Air Temp Water Temp Dewpoint Dewpoint Depression Visibility Wind Speed Wind Dir Waves Ship Positions

Nordic Moon

Last reported at 2018-Jan-27 12:38 UTC. Time now 2018-Feb-18 05:30 UTC.
Position N 07°40' W 016°06'.
Warning: this ship's position is 21 days out of date.

Length 272 m; draft 9 m.

Type: Tanker. MMSI: 538001711.

Date/timePositionNaut miles runAvg speedWind from/ knotsBaromVisibWave heightAir tempDewpointWater temp
2018-Jan-27 12:38N 07°40' W 016°06'1 8.4
2018-Jan-27 12:30N 07°41' W 016°06'25 8.3
2018-Jan-27 09:30N 07°59' W 016°24'612.8
2018-Jan-27 09:00N 08°03' W 016°29'713.7
2018-Jan-27 08:30N 08°08' W 016°34'910.7
2018-Jan-27 07:38N 08°14' W 016°41'210.5
2018-Jan-27 07:26N 08°16' W 016°42'510.6
2018-Jan-27 07:00N 08°19' W 016°45'510.6
2018-Jan-27 06:31N 08°23' W 016°49'510.6
2018-Jan-27 06:00N 08°26' W 016°53'510.5
2018-Jan-27 05:30N 08°30' W 016°57'810.3
2018-Jan-27 04:42N 08°37' W 017°02'210.4
2018-Jan-27 04:30N 08°38' W 017°03'510.6
2018-Jan-27 04:01N 08°43' W 017°06'510.6
2018-Jan-27 03:30N 08°47' W 017°09'510.6
2018-Jan-27 02:59N 08°51' W 017°12'510.5
2018-Jan-27 02:31N 08°56' W 017°15'610.5
2018-Jan-27 01:55N 09°01' W 017°19'3210.5
2018-Jan-26 22:53N 09°27' W 017°38'710.6
2018-Jan-26 22:16N 09°32' W 017°41'510.3
2018-Jan-26 21:47N 09°36' W 017°44'310.1
2018-Jan-26 21:30N 09°38' W 017°46'510.0
2018-Jan-26 21:00N 09°43' W 017°49'510.0
2018-Jan-26 20:30N 09°47' W 017°52'510.1
2018-Jan-26 20:00N 09°51' W 017°55'910.2
2018-Jan-26 19:07N 09°58' W 018°00'110.1
2018-Jan-26 18:59N 09°59' W 018°01'610.1
2018-Jan-26 18:20N 10°05' W 018°05'4 9.9
2018-Jan-26 17:58N 10°08' W 018°07'5 9.8
2018-Jan-26 17:30N 10°11' W 018°09'7 9.8
2018-Jan-26 16:49N 10°17' W 018°13'6 9.8
2018-Jan-26 16:12N 10°22' W 018°17'2 8.0
2018-Jan-26 16:00N 10°23' W 018°18'4 7.6
2018-Jan-26 15:31N 10°26' W 018°20'  
2018-Jan-23 21:20N 21°17' W 018°28'5610.6
2018-Jan-23 16:02N 22°11' W 018°13'238 9.9
2018-Jan-22 16:08N 25°43' W 016°15'510.3
2018-Jan-22 15:42N 25°47' W 016°12'310.3
2018-Jan-22 15:27N 25°49' W 016°11'410.2
2018-Jan-22 15:00N 25°53' W 016°08'10110.4
2018-Jan-22 05:20N 27°22' W 015°16'410.9
2018-Jan-22 04:57N 27°27' W 015°16'510.8
2018-Jan-22 04:30N 27°31' W 015°16'510.4
2018-Jan-22 04:00N 27°37' W 015°16'510.2
2018-Jan-22 03:30N 27°42' W 015°16'5 9.9
2018-Jan-22 03:00N 27°47' W 015°16'5 9.8
2018-Jan-22 02:30N 27°52' W 015°16'5 9.9
2018-Jan-22 02:00N 27°57' W 015°16'5 9.8
2018-Jan-22 01:29N 28°02' W 015°17'5 9.7
2018-Jan-22 01:00N 28°05' W 015°20'4 8.9
2018-Jan-22 00:30N 28°09' W 015°23'0 0.6
2018-Jan-22 00:00N 28°08' W 015°24'0 0.1
2018-Jan-21 23:30N 28°08' W 015°24'0 0.0
2018-Jan-21 23:00N 28°08' W 015°24'0 0.0
2018-Jan-21 22:30N 28°08' W 015°24'0 0.0
2018-Jan-21 22:00N 28°08' W 015°24'0 0.0
2018-Jan-21 21:30N 28°08' W 015°24'0 0.1
2018-Jan-21 21:00N 28°08' W 015°24'0 0.1
2018-Jan-21 20:30N 28°08' W 015°24'0 0.0
2018-Jan-21 20:00N 28°08' W 015°24'0 0.1
2018-Jan-21 19:30N 28°08' W 015°24'0 0.0
2018-Jan-21 19:00N 28°08' W 015°24'0 0.0
2018-Jan-21 18:21N 28°08' W 015°24'0 0.1
2018-Jan-21 17:51N 28°08' W 015°24'0 0.0
2018-Jan-21 17:21N 28°08' W 015°24'0 0.0
2018-Jan-21 16:51N 28°08' W 015°24'0 0.1
2018-Jan-21 16:24N 28°08' W 015°24'0 0.0
2018-Jan-21 15:54N 28°09' W 015°24'0 0.0
2018-Jan-21 15:24N 28°08' W 015°24'0 0.0
2018-Jan-21 14:54N 28°09' W 015°24'0 0.0
2018-Jan-21 14:24N 28°09' W 015°24'0 0.0
2018-Jan-21 13:54N 28°09' W 015°24'0 0.0
2018-Jan-21 13:27N 28°09' W 015°24'0 0.0
2018-Jan-21 12:57N 28°09' W 015°24'0 0.0
2018-Jan-21 12:27N 28°09' W 015°24'0 0.0
2018-Jan-21 11:39N 28°09' W 015°24'0 0.0
2018-Jan-21 11:27N 28°09' W 015°24'0 0.0
2018-Jan-21 11:00N 28°08' W 015°24'0 0.0
2018-Jan-21 10:27N 28°08' W 015°24'0 0.3
2018-Jan-21 10:00N 28°08' W 015°24'1 1.8
2018-Jan-21 09:30N 28°08' W 015°23'2 3.4
2018-Jan-21 09:00N 28°07' W 015°22'3 5.5
2018-Jan-21 08:30N 28°07' W 015°18'4 7.9
2018-Jan-21 07:59N 28°11' W 015°16'4 8.1
2018-Jan-21 07:30N 28°15' W 015°14'4 8.0
2018-Jan-21 07:00N 28°18' W 015°13'4 7.8
2018-Jan-21 06:30N 28°22' W 015°11'4 7.5
2018-Jan-21 06:00N 28°25' W 015°10'4 7.4
2018-Jan-21 05:30N 28°29' W 015°09'4 7.7
2018-Jan-21 05:00N 28°33' W 015°09'4 7.8
2018-Jan-21 04:30N 28°37' W 015°08'4 7.8
2018-Jan-21 04:00N 28°41' W 015°08'4 7.9
2018-Jan-21 03:29N 28°45' W 015°07'6 8.2
2018-Jan-21 02:45N 28°50' W 015°05'2 8.2
2018-Jan-21 02:30N 28°52' W 015°04'4 8.1
2018-Jan-21 02:00N 28°56' W 015°03'4 8.2
2018-Jan-21 01:30N 29°00' W 015°02'6 7.9
2018-Jan-21 00:43N 29°06' W 015°00'2 7.9
2018-Jan-21 00:26N 29°09' W 014°60'4 8.0
2018-Jan-20 23:56N 29°12' W 014°58'4 7.9
2018-Jan-20 23:28N 29°16' W 014°57'10 4.1
2018-Jan-20 20:55N 29°26' W 014°55'1 1.8
2018-Jan-20 20:30N 29°27' W 014°55'1 1.7
2018-Jan-20 19:47N 29°28' W 014°55'36 1.9
2018-Jan-20 01:05N 30°03' W 014°49'0 2.2
2018-Jan-20 00:59N 30°04' W 014°49'1 2.1
2018-Jan-20 00:30N 30°05' W 014°49'1 2.0
2018-Jan-19 23:49N 30°06' W 014°49'  

Dump ship's entire track history